Time;durP1;ratioP1;P1;durP2;ratioP2;P2;SDS_P1;SDS_P2;PMS_P1;PMS_P2;Temp;Humidity;BMP_temperature;BMP_pressure;BME280_temperature;BME280_humidity;BME280_pressure;Samples;Min_cycle;Max_cycle;Signal;HPM_P1;HPM_P2
2021/06/04 00:00:31;;;;;;;4.50;2.40;;;;;;;11.12;61.25;102418.53;5009751;28;20200;-73
2021/06/04 00:03:02;;;;;;;6.00;2.63;;;;;;;11.05;61.79;102411.66;5005509;28;20709;-74
2021/06/04 00:05:33;;;;;;;4.00;2.83;;;;;;;11.01;62.42;102410.03;5009853;28;20214;-64
2021/06/04 00:08:01;;;;;;;3.73;3.00;;;;;;;10.79;61.56;102383.19;4998409;28;20218;-65
2021/06/04 00:10:32;;;;;;;6.37;2.90;;;;;;;10.92;62.52;102409.53;4998972;28;20201;-65
2021/06/04 00:13:17;;;;;;;6.97;2.80;;;;;;;10.84;62.16;102410.75;5007911;28;20214;-65
2021/06/04 00:15:47;;;;;;;4.37;3.10;;;;;;;10.82;61.83;102406.38;5000195;28;20207;-65
2021/06/04 00:18:16;;;;;;;6.00;3.00;;;;;;;10.50;63.60;102384.41;5002415;28;20209;-74
2021/06/04 00:20:44;;;;;;;3.63;2.90;;;;;;;10.58;63.95;102410.94;5007986;28;20202;-74
2021/06/04 00:23:12;;;;;;;5.40;3.07;;;;;;;10.56;63.51;102410.16;5007788;28;20224;-74
2021/06/04 00:25:39;;;;;;;5.43;3.23;;;;;;;10.57;63.65;102409.19;4999414;28;20213;-72
2021/06/04 00:28:07;;;;;;;1081.40;527.97;;;;;;;10.58;62.80;102406.44;5013023;28;20245;-64
2021/06/04 00:30:36;;;;;;;114.57;53.63;;;;;;;10.59;63.36;102404.63;5010307;28;20241;-64
2021/06/04 00:33:06;;;;;;;12.93;9.07;;;;;;;10.60;64.38;102402.81;5013542;28;20198;-73
2021/06/04 00:35:35;;;;;;;16.60;10.57;;;;;;;10.56;66.38;102402.97;5010937;28;20761;-65
2021/06/04 00:38:03;;;;;;;9.83;4.37;;;;;;;10.60;65.85;102409.06;5001111;28;20213;-64
2021/06/04 00:40:37;;;;;;;4.97;3.77;;;;;;;10.61;65.60;102401.88;5009557;28;20254;-64
2021/06/04 00:43:06;;;;;;;5.57;4.23;;;;;;;10.37;64.82;102358.09;5011587;28;20220;-65
2021/06/04 00:45:42;;;;;;;5.40;3.47;;;;;;;10.61;64.91;102405.44;5010335;28;20551;-65
2021/06/04 00:48:12;;;;;;;10.67;5.23;;;;;;;10.63;63.34;102398.19;4999170;28;20207;-66
2021/06/04 00:50:46;;;;;;;9.77;6.57;;;;;;;10.66;63.12;102403.44;5001768;28;20748;-66
2021/06/04 00:53:15;;;;;;;12.23;8.90;;;;;;;10.68;62.89;102406.94;5010996;28;20191;-66
2021/06/04 00:55:43;;;;;;;9.70;4.20;;;;;;;10.65;62.80;102406.19;5000822;28;20667;-74
2021/06/04 00:58:14;;;;;;;7.00;5.63;;;;;;;10.64;63.12;102402.63;5005287;28;20200;-65
2021/06/04 01:00:47;;;;;;;4.97;3.40;;;;;;;10.58;63.63;102395.72;4997867;28;20204;-65
2021/06/04 01:03:23;;;;;;;17.80;15.10;;;;;;;10.55;62.52;102390.47;5010828;28;20215;-66
2021/06/04 01:06:00;;;;;;;4.70;3.57;;;;;;;10.53;63.17;102407.59;5009572;28;20231;-66
2021/06/04 01:08:42;;;;;;;6.13;4.00;;;;;;;10.51;63.29;102388.84;5010426;28;20234;-64
2021/06/04 01:11:18;;;;;;;5.63;2.93;;;;;;;9.92;63.50;102303.50;5011230;28;20811;-65
2021/06/04 01:14:02;;;;;;;4.63;3.33;;;;;;;10.42;62.88;102381.16;5011360;28;20214;-64
2021/06/04 01:16:36;;;;;;;5.40;3.23;;;;;;;10.43;63.17;102395.47;5003896;28;20600;-64
2021/06/04 01:19:29;;;;;;;5.07;3.40;;;;;;;10.39;63.25;102386.63;5009601;28;20676;-64
2021/06/04 01:22:03;;;;;;;3.83;2.90;;;;;;;10.34;63.66;102401.19;5007494;28;20191;-73
2021/06/04 01:24:49;;;;;;;4.60;3.10;;;;;;;10.29;64.32;102396.00;5008651;28;20283;-73
2021/06/04 01:27:23;;;;;;;5.90;2.87;;;;;;;9.94;63.83;102344.56;5006405;28;20262;-73
2021/06/04 01:30:00;;;;;;;5.30;3.23;;;;;;;10.19;63.34;102398.16;5008963;28;20204;-73
2021/06/04 01:32:35;;;;;;;7.63;3.30;;;;;;;10.17;63.36;102394.66;5020126;28;20205;-73
2021/06/04 01:35:07;;;;;;;4.37;3.23;;;;;;;10.14;63.43;102394.78;5008284;28;20320;-73
2021/06/04 01:37:37;;;;;;;3.70;2.70;;;;;;;10.10;64.19;102394.94;5003793;28;20214;-74
2021/06/04 01:40:13;;;;;;;4.10;3.20;;;;;;;10.08;63.48;102395.00;5010409;28;20239;-73
2021/06/04 01:42:48;;;;;;;3.70;2.60;;;;;;;10.06;63.90;102388.81;5011545;28;20609;-73
2021/06/04 01:45:30;;;;;;;5.20;3.20;;;;;;;9.96;64.26;102377.59;4999459;28;20659;-74
2021/06/04 01:48:09;;;;;;;4.40;3.27;;;;;;;10.04;63.33;102388.00;5015467;28;20693;-73
2021/06/04 01:50:47;;;;;;;7.93;3.50;;;;;;;9.86;63.72;102360.09;5002976;28;20208;-74
2021/06/04 01:53:21;;;;;;;5.07;3.57;;;;;;;9.99;63.81;102390.00;5014164;28;20205;-73
2021/06/04 01:55:54;;;;;;;6.00;3.27;;;;;;;9.87;64.27;102374.38;5011050;28;20199;-74
2021/06/04 01:58:28;;;;;;;11.27;3.37;;;;;;;9.84;64.73;102377.19;5008466;28;20214;-73
2021/06/04 02:01:04;;;;;;;4.60;2.97;;;;;;;9.86;64.49;102378.88;5004243;28;20213;-73
2021/06/04 02:03:32;;;;;;;9.77;3.30;;;;;;;9.82;64.69;102371.00;5009506;28;20222;-73
2021/06/04 02:06:10;;;;;;;5.70;3.53;;;;;;;9.82;63.98;102371.00;5009069;28;20218;-73
2021/06/04 02:08:42;;;;;;;4.60;3.00;;;;;;;9.81;64.33;102364.78;5009834;28;20866;-73
2021/06/04 02:11:14;;;;;;;4.80;3.30;;;;;;;9.82;64.40;102373.69;4996822;28;20200;-73
2021/06/04 02:13:47;;;;;;;5.77;3.10;;;;;;;9.81;64.21;102367.47;5009432;28;20215;-64
2021/06/04 02:16:41;;;;;;;4.53;3.23;;;;;;;9.84;64.47;102366.47;5003884;28;20211;-65
2021/06/04 02:19:22;;;;;;;3.17;2.70;;;;;;;9.81;64.43;102369.28;5009036;28;20207;-65
2021/06/04 02:22:09;;;;;;;5.17;3.10;;;;;;;9.75;65.20;102367.66;5007381;28;20245;-65
2021/06/04 02:24:49;;;;;;;5.33;3.27;;;;;;;9.82;64.40;102373.69;4999480;28;20208;-65
2021/06/04 02:27:23;;;;;;;8.33;3.40;;;;;;;9.89;64.57;102377.88;5006836;28;20620;-64
2021/06/04 02:30:01;;;;;;;4.03;3.00;;;;;;;10.07;64.28;102371.78;5004109;28;20213;-65
2021/06/04 02:32:39;;;;;;;6.30;3.40;;;;;;;10.42;66.39;102381.16;5004766;28;20273;-65
2021/06/04 02:35:13;;;;;;;4.63;3.30;;;;;;;10.95;66.19;102352.97;5008262;28;20256;-65
2021/06/04 02:37:44;;;;;;;4.90;3.50;;;;;;;11.68;66.22;102366.69;5009235;28;20203;-65
2021/06/04 02:40:17;;;;;;;4.77;3.33;;;;;;;12.38;65.33;102357.09;5006170;28;20214;-64
2021/06/04 02:42:50;;;;;;;8.97;3.27;;;;;;;13.12;63.80;102368.56;5009379;28;20310;-65
2021/06/04 02:45:26;;;;;;;3.97;3.20;;;;;;;13.79;62.57;102370.41;5007230;28;20213;-73
2021/06/04 02:47:58;;;;;;;127.57;58.90;;;;;;;14.47;61.50;102365.66;5009067;28;20219;-73
2021/06/04 02:50:32;;;;;;;10.23;7.63;;;;;;;15.18;58.87;102365.03;5009158;28;20206;-73
2021/06/04 02:53:17;;;;;;;6.60;4.13;;;;;;;15.87;57.32;102355.31;5009494;28;20206;-74
2021/06/04 02:56:03;;;;;;;5.80;3.30;;;;;;;16.51;54.72;102359.25;5007963;28;20574;-73
2021/06/04 02:58:35;;;;;;;4.23;3.17;;;;;;;16.74;54.07;102332.34;5009431;28;20851;-74
2021/06/04 03:01:06;;;;;;;4.47;3.30;;;;;;;16.94;52.61;102347.25;5003506;28;20204;-74
2021/06/04 03:03:35;;;;;;;4.13;3.00;;;;;;;16.84;52.77;102348.88;4997466;28;20291;-73
2021/06/04 03:06:03;;;;;;;3.50;2.80;;;;;;;16.60;52.79;102307.97;5013591;28;20198;-73
2021/06/04 03:08:34;;;;;;;3.87;2.50;;;;;;;16.92;53.37;102349.22;5012883;28;20199;-73
2021/06/04 03:11:10;;;;;;;3.90;2.87;;;;;;;17.00;52.54;102357.69;5007996;28;20211;-73
2021/06/04 03:13:38;;;;;;;5.03;3.10;;;;;;;16.90;53.05;102358.44;5019290;28;20210;-74
2021/06/04 03:16:14;;;;;;;3.87;3.07;;;;;;;16.74;53.07;102356.75;5001935;28;20294;-74
2021/06/04 03:18:47;;;;;;;3.63;2.60;;;;;;;16.45;53.38;102355.97;5000921;28;20244;-73
2021/06/04 03:21:21;;;;;;;3.70;2.80;;;;;;;16.06;54.39;102353.19;4997318;28;20304;-73
2021/06/04 03:23:49;;;;;;;5.80;2.97;;;;;;;15.74;55.40;102353.41;5004566;28;20246;-73
2021/06/04 03:26:21;;;;;;;3.47;3.10;;;;;;;15.58;56.38;102347.19;5008277;28;20230;-73
2021/06/04 03:28:51;;;;;;;4.43;2.90;;;;;;;15.53;56.42;102349.31;5000089;28;20208;-74
2021/06/04 03:31:22;;;;;;;4.33;2.90;;;;;;;15.47;57.16;102344.28;4999147;28;20196;-74
2021/06/04 03:33:53;;;;;;;6.20;2.93;;;;;;;15.49;57.16;102348.63;5006289;28;20325;-73
2021/06/04 03:36:26;;;;;;;4.17;2.77;;;;;;;15.48;57.17;102340.59;5004644;28;20842;-74
2021/06/04 03:38:55;;;;;;;6.57;3.30;;;;;;;15.35;58.29;102345.94;5003282;28;20697;-74
2021/06/04 03:41:26;;;;;;;6.80;3.20;;;;;;;15.29;58.24;102346.28;5011115;28;20206;-73
2021/06/04 03:43:56;;;;;;;4.27;2.90;;;;;;;14.92;58.44;102304.38;5008696;28;20226;-74
2021/06/04 03:46:25;;;;;;;3.47;3.00;;;;;;;14.66;59.11;102297.84;5006941;28;20546;-73
2021/06/04 03:48:54;;;;;;;4.30;2.93;;;;;;;14.86;59.26;102348.03;5008827;28;20611;-74
2021/06/04 03:51:26;;;;;;;3.40;2.80;;;;;;;14.77;60.04;102337.78;5004967;28;20754;-74
2021/06/04 03:53:54;;;;;;;4.90;3.10;;;;;;;14.75;59.98;102347.81;5008676;28;20207;-65
2021/06/04 03:56:24;;;;;;;4.97;2.97;;;;;;;14.81;60.22;102351.03;5002754;28;20698;-73
2021/06/04 03:58:52;;;;;;;3.80;3.10;;;;;;;14.79;60.07;102347.53;5008101;28;20264;-73
2021/06/04 04:01:28;;;;;;;4.50;3.13;;;;;;;14.75;60.64;102350.53;5006799;28;20282;-73
2021/06/04 04:03:58;;;;;;;5.83;3.20;;;;;;;14.70;60.92;102352.63;5008052;28;20222;-73
2021/06/04 04:06:26;;;;;;;3.37;2.87;;;;;;;14.72;61.59;102348.00;5004403;28;20207;-73
2021/06/04 04:08:54;;;;;;;4.60;3.17;;;;;;;14.66;61.99;102345.63;5008772;28;20199;-73
2021/06/04 04:11:22;;;;;;;4.63;3.07;;;;;;;14.45;62.41;102301.84;5005429;28;20215;-73
2021/06/04 04:13:50;;;;;;;5.67;3.07;;;;;;;14.75;62.64;102347.81;5006110;28;20215;-73
2021/06/04 04:16:18;;;;;;;3.63;2.80;;;;;;;14.83;62.85;102342.81;5005366;28;20309;-73
2021/06/04 04:18:46;;;;;;;4.03;3.20;;;;;;;14.93;62.70;102348.53;5008009;28;20202;-74
2021/06/04 04:21:15;;;;;;;4.00;2.87;;;;;;;14.82;62.56;102325.72;5010101;28;20202;-73
2021/06/04 04:23:47;;;;;;;3.50;2.73;;;;;;;15.00;62.12;102339.97;5004688;28;20219;-74
2021/06/04 04:26:16;;;;;;;4.23;3.00;;;;;;;15.03;61.54;102350.59;5002208;28;20249;-73
2021/06/04 04:28:46;;;;;;;6.67;3.10;;;;;;;15.05;62.31;102343.28;5005241;28;20194;-74
2021/06/04 04:31:17;;;;;;;4.90;3.33;;;;;;;15.10;61.66;102351.09;5001980;28;20218;-74
2021/06/04 04:33:45;;;;;;;5.73;3.00;;;;;;;15.13;62.23;102357.19;5001615;28;20697;-74
2021/06/04 04:36:18;;;;;;;6.07;3.07;;;;;;;15.22;61.29;102344.94;5006634;28;20237;-74
2021/06/04 04:38:47;;;;;;;6.40;3.00;;;;;;;15.14;61.87;102321.03;5004844;28;20203;-74
2021/06/04 04:41:15;;;;;;;4.87;2.87;;;;;;;15.31;62.08;102343.50;5004165;28;20552;-73
2021/06/04 04:43:46;;;;;;;4.20;2.50;;;;;;;15.38;61.03;102350.28;5002013;28;20231;-74
2021/06/04 04:46:16;;;;;;;3.33;2.60;;;;;;;15.47;61.24;102339.72;5006231;28;20726;-73
2021/06/04 04:48:44;;;;;;;2.60;2.33;;;;;;;15.58;60.61;102347.19;5004502;28;20276;-73
2021/06/04 04:51:15;;;;;;;2.67;2.00;;;;;;;15.66;59.90;102349.44;5003610;28;20196;-74
2021/06/04 04:53:44;;;;;;;3.47;2.23;;;;;;;15.65;59.75;102331.47;5005073;28;20188;-73
2021/06/04 04:56:13;;;;;;;2.27;2.07;;;;;;;15.57;59.87;102306.66;5005101;28;20286;-73
2021/06/04 04:58:41;;;;;;;5.87;2.30;;;;;;;15.90;59.59;102341.56;5003125;28;20195;-64
2021/06/04 05:01:10;;;;;;;2.63;2.20;;;;;;;16.06;59.99;102343.22;5005068;28;20209;-66
2021/06/04 05:03:39;;;;;;;2.77;2.33;;;;;;;16.12;59.62;102325.66;5002982;28;20218;-66
2021/06/04 05:06:07;;;;;;;3.00;2.30;;;;;;;16.44;58.96;102342.50;5009813;28;20210;-65
2021/06/04 05:08:35;;;;;;;2.43;1.90;;;;;;;16.66;58.92;102332.00;5007727;28;20203;-66
2021/06/04 05:11:05;;;;;;;3.33;2.20;;;;;;;16.96;58.78;102337.16;5007066;28;20674;-66
2021/06/04 05:13:34;;;;;;;3.10;2.30;;;;;;;17.20;57.77;102339.16;5009557;28;20198;-67
2021/06/04 05:16:04;;;;;;;2.57;2.10;;;;;;;17.32;57.43;102313.84;5008458;28;20591;-66
2021/06/04 05:18:32;;;;;;;3.33;2.10;;;;;;;17.71;56.52;102345.47;5009179;28;20196;-66
2021/06/04 05:21:01;;;;;;;2.77;2.20;;;;;;;17.99;55.79;102347.03;5009625;28;20206;-66
2021/06/04 05:23:29;;;;;;;2.30;2.10;;;;;;;18.33;55.40;102342.69;5009072;28;20195;-66
2021/06/04 05:25:57;;;;;;;2.63;2.17;;;;;;;18.70;55.08;102348.13;5008498;28;20259;-66
2021/06/04 05:28:28;;;;;;;2.50;2.23;;;;;;;19.02;54.97;102348.38;5008478;28;20195;-66
2021/06/04 05:30:59;;;;;;;3.23;2.70;;;;;;;19.38;53.58;102341.88;5009348;28;20214;-66
2021/06/04 05:33:32;;;;;;;2.77;2.20;;;;;;;19.32;51.88;102345.97;5021461;28;20211;-66
2021/06/04 05:36:00;;;;;;;2.30;2.10;;;;;;;19.69;50.96;102343.06;5007453;28;20199;-65
2021/06/04 05:38:28;;;;;;;2.70;2.10;;;;;;;20.10;50.36;102342.41;5007807;28;20211;-66
2021/06/04 05:40:56;;;;;;;3.33;2.23;;;;;;;20.14;49.99;102303.81;5008093;28;20751;-67
2021/06/04 05:43:29;;;;;;;3.30;1.90;;;;;;;20.57;50.28;102346.66;5007058;28;20191;-65
2021/06/04 05:45:58;;;;;;;3.00;2.10;;;;;;;20.71;49.23;102332.69;5008342;28;20205;-66
2021/06/04 05:48:26;;;;;;;2.17;1.97;;;;;;;20.77;48.77;102340.34;5007916;28;20199;-65
2021/06/04 05:50:57;;;;;;;2.60;2.03;;;;;;;21.01;47.86;102336.53;5009101;28;20209;-66
2021/06/04 05:53:28;;;;;;;1.80;1.70;;;;;;;21.05;48.09;102303.34;5004230;28;20195;-66
2021/06/04 05:55:57;;;;;;;2.43;1.90;;;;;;;21.74;47.03;102338.31;5006599;28;20207;-65
2021/06/04 05:58:26;;;;;;;3.43;2.10;;;;;;;22.24;44.91;102335.59;5005224;28;20199;-66
2021/06/04 06:00:57;;;;;;;2.37;2.10;;;;;;;22.57;45.14;102342.56;5010468;28;20648;-66
2021/06/04 06:03:28;;;;;;;2.17;1.90;;;;;;;22.91;43.99;102346.63;5006525;28;20427;-66
2021/06/04 06:05:56;;;;;;;3.10;1.90;;;;;;;23.07;44.28;102346.06;5007541;28;20210;-66
2021/06/04 06:08:24;;;;;;;3.47;1.77;;;;;;;23.17;43.29;102335.06;5005879;28;20576;-66
2021/06/04 06:10:53;;;;;;;1.80;1.70;;;;;;;23.19;43.03;102283.69;5008312;28;20686;-66
2021/06/04 06:13:22;;;;;;;3.90;1.90;;;;;;;23.68;42.59;102340.16;5012083;28;20232;-66
2021/06/04 06:15:51;;;;;;;1.87;1.73;;;;;;;23.90;42.46;102338.06;5009308;28;20214;-74
2021/06/04 06:18:20;;;;;;;2.20;1.60;;;;;;;23.87;41.81;102336.44;5008323;28;20213;-66
2021/06/04 06:20:48;;;;;;;1.87;1.77;;;;;;;23.75;41.55;102335.78;5006458;28;20697;-66
2021/06/04 06:23:17;;;;;;;1.73;1.63;;;;;;;23.67;41.05;102340.31;5009587;28;20207;-66
2021/06/04 06:25:47;;;;;;;2.10;1.50;;;;;;;23.97;41.11;102336.44;5009766;28;20238;-74
2021/06/04 06:28:19;;;;;;;1.90;1.70;;;;;;;24.51;41.10;102337.44;4992143;28;20613;-74
2021/06/04 06:30:47;;;;;;;3.72;1.65;;;;;;;24.58;39.92;102333.88;5010232;28;20199;-74
2021/06/04 06:33:15;;;;;;;1.92;1.73;;;;;;;24.22;38.64;102338.44;5006242;28;20192;-74
2021/06/04 06:35:47;;;;;;;1.67;1.58;;;;;;;24.11;37.54;102338.63;5018275;28;20365;-74
2021/06/04 06:38:16;;;;;;;1.60;1.40;;;;;;;24.05;37.09;102339.25;5005857;28;20203;-74
2021/06/04 06:40:45;;;;;;;2.13;1.50;;;;;;;23.92;35.11;102338.75;5010061;28;20696;-66
2021/06/04 06:43:13;;;;;;;2.28;1.55;;;;;;;23.75;34.10;102341.28;5009792;28;20207;-67
2021/06/04 06:45:42;;;;;;;2.73;1.50;;;;;;;23.59;35.20;102341.06;5014696;28;20484;-66
2021/06/04 06:48:10;;;;;;;3.00;1.50;;;;;;;23.57;36.91;102337.59;5007332;28;20792;-74
2021/06/04 06:50:41;;;;;;;1.57;1.47;;;;;;;23.88;36.62;102334.56;5021937;28;20310;-74
2021/06/04 06:53:13;;;;;;;1.40;1.30;;;;;;;23.93;34.12;102340.50;5013028;28;20198;-66
2021/06/04 06:55:43;;;;;;;1.30;1.20;;;;;;;23.96;34.21;102337.44;5014056;28;20195;-75
2021/06/04 06:58:12;;;;;;;2.40;1.97;;;;;;;24.41;36.23;102334.72;5007624;28;20200;-75
2021/06/04 07:00:43;;;;;;;2.17;1.37;;;;;;;24.71;36.10;102334.34;5006619;28;20477;-73
2021/06/04 07:03:13;;;;;;;1.25;1.23;;;;;;;24.50;36.12;102335.69;5007236;28;20282;-65
2021/06/04 07:05:41;;;;;;;2.00;1.50;;;;;;;24.25;36.85;102337.28;5007480;28;20231;-65
2021/06/04 07:08:11;;;;;;;1.60;1.50;;;;;;;24.22;35.28;102335.72;5009378;28;20195;-66
2021/06/04 07:10:39;;;;;;;1.50;1.40;;;;;;;24.24;35.65;102336.41;5009435;28;20685;-65
2021/06/04 07:13:09;;;;;;;1.43;1.33;;;;;;;24.09;35.09;102333.31;5003883;28;20199;-66
2021/06/04 07:15:38;;;;;;;1.50;1.40;;;;;;;24.00;36.79;102333.38;5000216;28;20226;-66
2021/06/04 07:18:06;;;;;;;3.97;1.70;;;;;;;24.07;36.03;102331.72;5007396;28;20688;-66
2021/06/04 07:20:36;;;;;;;1.65;1.55;;;;;;;24.08;36.00;102303.25;5006774;28;20191;-66
2021/06/04 07:23:08;;;;;;;2.20;1.40;;;;;;;24.36;35.09;102320.59;5007275;28;20199;-66
2021/06/04 07:25:39;;;;;;;1.30;1.30;;;;;;;24.65;36.40;102331.38;5004577;28;20230;-66
2021/06/04 07:28:09;;;;;;;2.08;1.80;;;;;;;25.15;37.12;102337.19;5003882;28;20200;-66
2021/06/04 07:30:41;;;;;;;1.70;1.60;;;;;;;25.68;36.46;102317.75;4997846;28;20207;-65
2021/06/04 07:33:12;;;;;;;2.03;1.70;;;;;;;26.26;35.86;102333.47;5004013;28;20207;-66
2021/06/04 07:35:40;;;;;;;4.80;1.80;;;;;;;26.58;35.64;102332.72;5005093;28;20199;-66
2021/06/04 07:38:08;;;;;;;1.75;1.65;;;;;;;26.56;34.30;102332.03;5005111;28;20206;-65
2021/06/04 07:40:38;;;;;;;1.83;1.73;;;;;;;26.42;35.29;102331.84;5005335;28;20542;-65
2021/06/04 07:43:10;;;;;;;1.80;1.70;;;;;;;26.00;34.98;102327.19;5004744;28;20281;-65
2021/06/04 07:45:40;;;;;;;1.90;1.67;;;;;;;26.23;35.62;102331.06;5017518;28;20225;-66
2021/06/04 07:48:12;;;;;;;1.75;1.65;;;;;;;26.87;35.40;102321.19;5003917;28;20199;-65
2021/06/04 07:50:41;;;;;;;2.72;1.48;;;;;;;27.38;34.64;102327.41;5005277;28;20227;-66
2021/06/04 07:53:10;;;;;;;3.25;1.70;;;;;;;27.48;34.28;102317.00;5021632;28;20195;-67
2021/06/04 07:55:40;;;;;;;2.03;1.52;;;;;;;27.15;32.98;102324.50;5001986;28;20416;-66
2021/06/04 07:58:08;;;;;;;1.65;1.55;;;;;;;26.87;33.17;102321.19;5020977;28;20217;-66
2021/06/04 08:00:37;;;;;;;3.13;1.45;;;;;;;27.49;33.65;102310.44;5004366;28;20195;-66
2021/06/04 08:03:14;;;;;;;1.60;1.50;;;;;;;27.81;33.97;102312.28;5004765;28;20207;-66
2021/06/04 08:05:41;;;;;;;1.77;1.67;;;;;;;28.06;33.27;102310.25;5001732;28;20654;-68
2021/06/04 08:08:09;;;;;;;3.03;1.60;;;;;;;28.17;31.83;102302.63;5008306;28;20446;-67
2021/06/04 08:10:40;;;;;;;2.63;1.60;;;;;;;28.15;32.51;102313.84;5007062;28;20742;-66
2021/06/04 08:13:13;;;;;;;2.40;1.83;;;;;;;27.87;31.50;102307.09;5004165;28;20278;-74
2021/06/04 08:15:49;;;;;;;2.80;2.10;;;;;;;28.19;32.91;102306.06;5005043;28;20678;-75
2021/06/04 08:18:18;;;;;;;1.65;1.55;;;;;;;28.55;32.34;102296.19;5006824;28;20206;-75
2021/06/04 08:20:47;;;;;;;3.17;1.73;;;;;;;28.91;32.18;102312.16;5004931;28;20570;-75
2021/06/04 08:23:17;;;;;;;2.33;1.95;;;;;;;29.17;31.79;102301.53;5003090;28;20253;-67
2021/06/04 08:25:49;;;;;;;2.13;1.70;;;;;;;29.36;31.76;102300.97;5004799;28;20226;-67
2021/06/04 08:28:19;;;;;;;1.67;1.58;;;;;;;29.45;31.38;102276.88;5006252;28;20234;-75
2021/06/04 08:30:48;;;;;;;2.13;1.80;;;;;;;29.74;31.46;102300.94;5005623;28;20198;-75
2021/06/04 08:33:21;;;;;;;1.83;1.73;;;;;;;29.19;32.11;102293.91;5005584;28;20223;-75
2021/06/04 08:35:49;;;;;;;1.77;1.63;;;;;;;29.64;32.02;102298.44;5006252;28;20244;-74
2021/06/04 08:38:17;;;;;;;1.80;1.70;;;;;;;29.32;31.58;102298.78;5000049;28;20206;-74
2021/06/04 08:40:47;;;;;;;2.15;1.65;;;;;;;29.64;31.53;102297.59;5009383;28;20561;-75
2021/06/04 08:43:24;;;;;;;1.77;1.67;;;;;;;29.59;31.51;102284.31;5002508;28;20204;-74
2021/06/04 08:46:03;;;;;;;2.70;1.98;;;;;;;29.78;31.41;102293.09;5006155;28;20740;-75
2021/06/04 08:48:44;;;;;;;1.80;1.70;;;;;;;29.83;31.60;102290.59;5009529;28;20214;-74
2021/06/04 08:51:20;;;;;;;7.35;1.80;;;;;;;30.15;30.88;102286.56;5009382;28;20201;-74
2021/06/04 08:54:01;;;;;;;1.60;1.50;;;;;;;29.83;31.08;102282.28;5007157;28;20210;-74
2021/06/04 08:56:35;;;;;;;3.60;1.98;;;;;;;29.66;30.60;102278.84;5001458;28;20737;-74
2021/06/04 08:59:07;;;;;;;1.95;1.80;;;;;;;30.07;30.79;102276.47;5002742;28;20195;-74
2021/06/04 09:01:40;;;;;;;1.90;1.70;;;;;;;30.47;30.54;102285.22;5004850;28;21108;-74
2021/06/04 09:04:18;;;;;;;1.80;1.70;;;;;;;30.86;29.40;102282.84;5004958;28;20223;-74
2021/06/04 09:06:50;;;;;;;4.32;2.08;;;;;;;30.16;28.97;102282.72;5006135;28;20213;-74
2021/06/04 09:09:24;;;;;;;2.97;2.10;;;;;;;30.54;30.25;102275.88;5004542;28;20230;-75
2021/06/04 09:11:57;;;;;;;2.33;1.63;;;;;;;30.99;29.26;102268.22;5007927;28;20232;-74
2021/06/04 09:14:26;;;;;;;1.83;1.73;;;;;;;31.14;29.72;102268.97;5004687;28;20215;-74
2021/06/04 09:17:13;;;;;;;2.72;2.00;;;;;;;30.91;29.41;102260.03;5003868;28;20191;-74
2021/06/04 09:19:55;;;;;;;4.95;1.88;;;;;;;30.90;28.80;102261.09;5006739;28;20207;-73
2021/06/04 09:22:26;;;;;;;1.92;1.75;;;;;;;30.85;29.38;102271.94;5007561;28;20234;-74
2021/06/04 09:24:54;;;;;;;2.20;2.00;;;;;;;30.94;29.41;102267.97;5008697;28;20257;-74
2021/06/04 09:27:31;;;;;;;2.75;1.88;;;;;;;30.14;29.88;102260.75;5008293;28;20231;-74
2021/06/04 09:30:23;;;;;;;4.45;1.60;;;;;;;30.02;30.04;102264.22;5008379;28;20688;-74
2021/06/04 09:33:11;;;;;;;1.83;1.73;;;;;;;29.70;29.28;102260.84;5002519;28;20203;-74
2021/06/04 09:35:58;;;;;;;3.70;2.10;;;;;;;29.26;29.13;102260.78;5010374;28;20187;-74
2021/06/04 09:38:29;;;;;;;2.08;1.88;;;;;;;29.55;29.83;102257.19;5009302;28;20199;-66
2021/06/04 09:41:11;;;;;;;1.92;1.70;;;;;;;29.96;28.08;102258.38;4999906;28;20332;-66
2021/06/04 09:43:40;;;;;;;1.92;1.83;;;;;;;29.34;29.43;102250.47;5011771;28;20203;-66
2021/06/04 09:46:10;;;;;;;2.25;1.60;;;;;;;29.62;30.82;102245.16;5008522;28;20250;-66
2021/06/04 09:48:54;;;;;;;1.90;1.70;;;;;;;29.77;30.69;102253.47;5006792;28;20287;-66
2021/06/04 09:51:25;;;;;;;2.42;1.80;;;;;;;30.47;30.12;102249.16;5006108;28;20376;-66
2021/06/04 09:53:54;;;;;;;4.85;1.70;;;;;;;30.81;29.29;102246.50;4996394;28;20208;-66
2021/06/04 09:56:28;;;;;;;1.83;1.70;;;;;;;30.73;28.05;102237.47;5008128;28;20199;-67
2021/06/04 09:59:00;;;;;;;1.80;1.70;;;;;;;30.47;28.90;102238.06;4994150;28;20213;-66
2021/06/04 10:01:42;;;;;;;3.47;1.67;;;;;;;30.17;29.35;102231.78;5004167;28;20733;-66
2021/06/04 10:04:16;;;;;;;3.78;1.83;;;;;;;30.97;28.61;102233.41;5003673;28;20222;-66
2021/06/04 10:06:49;;;;;;;1.80;1.70;;;;;;;31.34;28.37;102234.97;5001605;28;20805;-66
2021/06/04 10:09:26;;;;;;;3.60;1.70;;;;;;;31.59;27.87;102225.06;5005223;28;20690;-67
2021/06/04 10:12:01;;;;;;;1.80;1.70;;;;;;;31.06;28.33;102221.06;5006844;28;20199;-67
2021/06/04 10:17:48;;;;;;;1.52;1.45;;;;;;;31.29;28.09;102218.06;4997516;28;20579;-66
2021/06/04 10:20:33;;;;;;;1.67;1.58;;;;;;;31.52;26.85;102216.66;4995511;28;20221;-66
2021/06/04 10:23:07;;;;;;;1.90;1.80;;;;;;;31.63;27.58;102194.94;4997156;28;20298;-66
2021/06/04 10:25:43;;;;;;;2.22;1.90;;;;;;;31.81;28.23;102221.09;5002158;28;20709;-66
2021/06/04 10:28:50;;;;;;;1.63;1.52;;;;;;;32.16;28.21;102212.66;4998121;28;20222;-66
2021/06/04 10:31:46;;;;;;;1.80;1.70;;;;;;;31.99;26.38;102217.75;5009096;28;20223;-66
2021/06/04 10:34:41;;;;;;;3.90;1.73;;;;;;;32.25;26.86;102211.41;5001281;28;20290;-66
2021/06/04 10:37:17;;;;;;;2.95;1.70;;;;;;;32.22;26.39;102219.31;4977122;28;20663;-66
2021/06/04 10:39:48;;;;;;;2.75;1.58;;;;;;;32.07;26.69;102219.47;5008372;28;20735;-66
2021/06/04 10:42:25;;;;;;;2.80;1.70;;;;;;;32.46;26.91;102213.16;5004251;28;20219;-66
2021/06/04 10:45:05;;;;;;;1.65;1.55;;;;;;;32.45;25.95;102210.56;5005415;28;20207;-67
2021/06/04 10:47:47;;;;;;;3.33;1.60;;;;;;;32.73;26.72;102202.88;5004354;28;20199;-67
2021/06/04 10:50:19;;;;;;;1.95;1.83;;;;;;;32.62;26.03;102200.75;5007361;28;20203;-67
2021/06/04 10:53:00;;;;;;;2.30;1.60;;;;;;;31.64;25.24;102202.19;5005001;28;20674;-67
2021/06/04 10:55:34;;;;;;;1.60;1.50;;;;;;;31.32;26.63;102192.66;5007819;28;20671;-67
2021/06/04 10:58:12;;;;;;;1.70;1.60;;;;;;;31.62;26.49;102193.22;5004639;28;20318;-66
2021/06/04 11:00:45;;;;;;;8.57;1.75;;;;;;;32.17;27.05;102194.91;5006139;28;20423;-66
2021/06/04 11:03:17;;;;;;;2.72;1.60;;;;;;;31.71;25.91;102186.44;5005877;28;20210;-73
2021/06/04 11:05:52;;;;;;;2.88;1.65;;;;;;;31.71;26.20;102186.44;5005210;28;20768;-73
2021/06/04 11:08:31;;;;;;;2.08;1.60;;;;;;;31.26;23.58;102177.66;5012552;28;20202;-66
2021/06/04 11:11:05;;;;;;;1.83;1.70;;;;;;;31.70;27.83;102185.53;5003373;28;20195;-66
2021/06/04 11:13:45;;;;;;;1.50;1.40;;;;;;;30.77;23.80;102181.38;5007475;28;20193;-67
2021/06/04 11:16:18;;;;;;;1.60;1.50;;;;;;;30.64;26.33;102181.28;5007610;28;20199;-67
2021/06/04 11:18:52;;;;;;;5.25;1.70;;;;;;;30.68;25.73;102142.91;4991426;28;20212;-67
2021/06/04 11:21:28;;;;;;;1.83;1.65;;;;;;;29.80;24.87;102145.00;4991708;28;20203;-74
2021/06/04 11:24:02;;;;;;;2.47;1.65;;;;;;;30.59;27.18;102180.97;5002870;28;20210;-67
2021/06/04 11:26:36;;;;;;;1.60;1.50;;;;;;;30.86;27.02;102176.50;5006299;28;20230;-74
2021/06/04 11:29:08;;;;;;;3.38;1.50;;;;;;;31.28;27.33;102178.31;5012514;28;20714;-73
2021/06/04 11:31:57;;;;;;;1.67;1.58;;;;;;;31.29;26.88;102177.25;5003090;28;20195;-74
2021/06/04 11:34:41;;;;;;;2.03;1.60;;;;;;;31.45;26.65;102174.13;4998583;28;20519;-74
2021/06/04 11:37:11;;;;;;;1.75;1.50;;;;;;;31.55;26.63;102170.97;5004276;28;20192;-74
2021/06/04 11:39:43;;;;;;;1.38;1.38;;;;;;;31.53;25.51;102167.50;5004092;28;20234;-73
2021/06/04 11:42:18;;;;;;;1.60;1.50;;;;;;;31.72;26.71;102172.34;5005642;28;20378;-74
2021/06/04 11:44:49;;;;;;;1.92;1.58;;;;;;;31.94;25.04;102164.69;5006302;28;20188;-74
2021/06/04 11:47:33;;;;;;;2.58;1.60;;;;;;;31.26;25.49;102111.03;5004142;28;20689;-74
2021/06/04 11:50:34;;;;;;;1.58;1.40;;;;;;;31.85;26.48;102171.53;5003631;28;20603;-74
2021/06/04 11:53:36;;;;;;;3.33;1.65;;;;;;;31.85;23.46;102170.69;5007466;28;20195;-74